createdAt,value
2022-12-24T00:00:31.934Z,29.30
2022-12-24T00:03:52.346Z,29.00
2022-12-24T00:06:54.747Z,28.60
2022-12-24T00:09:56.717Z,28.60
2022-12-24T00:12:58.966Z,28.70
2022-12-24T00:16:01.381Z,28.70
2022-12-24T00:19:03.699Z,28.70
2022-12-24T00:22:05.683Z,28.10
2022-12-24T00:25:08.252Z,28.00
2022-12-24T00:28:10.742Z,28.60
2022-12-24T00:31:18.933Z,28.60
2022-12-24T00:34:23.701Z,28.20
2022-12-24T00:37:26.100Z,27.60
2022-12-24T00:40:28.081Z,27.90
2022-12-24T00:43:31.763Z,27.60
2022-12-24T00:46:34.889Z,27.70
2022-12-24T00:49:37.213Z,26.90
2022-12-24T00:52:39.284Z,26.50
2022-12-24T00:55:41.584Z,26.80
2022-12-24T00:58:44.796Z,27.30
2022-12-24T01:01:47.166Z,27.40
2022-12-24T01:05:08.071Z,27.40
2022-12-24T01:08:10.333Z,27.70
2022-12-24T01:11:13.931Z,27.60
2022-12-24T01:14:16.202Z,27.30
2022-12-24T01:17:18.405Z,27.50
2022-12-24T01:20:21.061Z,26.90
2022-12-24T01:23:23.051Z,27.30
2022-12-24T01:26:25.354Z,27.00
2022-12-24T01:29:27.347Z,25.60
2022-12-24T01:32:29.676Z,25.80
2022-12-24T01:35:31.643Z,25.70
2022-12-24T01:38:33.980Z,26.50
2022-12-24T01:41:54.429Z,27.00
2022-12-24T01:44:56.719Z,27.10
2022-12-24T01:47:58.729Z,27.30
2022-12-24T01:51:21.195Z,27.70
2022-12-24T01:54:43.038Z,27.60
2022-12-24T01:57:58.898Z,27.40
2022-12-24T02:01:00.969Z,27.40
2022-12-24T02:04:12.194Z,26.90
2022-12-24T02:07:14.290Z,27.20
2022-12-24T02:10:16.837Z,25.90
2022-12-24T02:13:21.090Z,25.80
2022-12-24T02:16:38.521Z,26.20
2022-12-24T02:20:06.867Z,27.00
2022-12-24T02:23:27.923Z,26.80
2022-12-24T02:26:56.237Z,26.30
2022-12-24T02:30:05.535Z,26.50
2022-12-24T02:33:29.066Z,26.70
2022-12-24T02:36:36.516Z,26.50
2022-12-24T02:39:52.957Z,26.30
2022-12-24T02:43:08.559Z,25.60
2022-12-24T02:46:24.215Z,26.10
2022-12-24T02:49:26.660Z,26.70
2022-12-24T02:52:35.788Z,27.10
2022-12-24T02:55:53.155Z,26.80
2022-12-24T02:59:07.339Z,26.50
2022-12-24T03:02:31.110Z,26.30
2022-12-24T03:05:39.449Z,26.20
2022-12-24T03:08:55.359Z,26.40
2022-12-24T03:12:13.951Z,25.70
2022-12-24T03:15:19.149Z,25.80
2022-12-24T03:18:27.863Z,25.40
2022-12-24T03:21:38.696Z,25.80
2022-12-24T03:24:40.700Z,26.20
2022-12-24T03:27:43.760Z,25.70
2022-12-24T03:30:48.906Z,26.00
2022-12-24T03:33:51.647Z,26.20
2022-12-24T03:36:53.636Z,26.20
2022-12-24T03:39:55.972Z,25.70
2022-12-24T03:42:58.316Z,25.30
2022-12-24T03:46:07.998Z,25.00
2022-12-24T03:49:10.189Z,25.60
2022-12-24T03:52:12.446Z,25.50
2022-12-24T03:55:14.445Z,24.80
2022-12-24T03:58:16.669Z,25.60
2022-12-24T04:01:19.195Z,26.00
2022-12-24T04:04:21.514Z,25.20
2022-12-24T04:07:23.568Z,25.70
2022-12-24T04:10:25.793Z,26.00
2022-12-24T04:13:28.018Z,25.40
2022-12-24T04:16:30.376Z,24.40
2022-12-24T04:19:32.474Z,24.40
2022-12-24T04:22:34.788Z,24.80
2022-12-24T04:25:37.605Z,25.40
2022-12-24T04:28:41.252Z,25.80
2022-12-24T04:31:43.599Z,26.30
2022-12-24T04:34:45.906Z,26.80
2022-12-24T04:37:47.855Z,26.60
2022-12-24T04:41:01.646Z,26.80
2022-12-24T04:44:03.773Z,26.90
2022-12-24T04:47:06.028Z,27.00
2022-12-24T04:50:08.646Z,27.00
2022-12-24T04:53:10.856Z,26.40
2022-12-24T04:56:18.032Z,26.30
2022-12-24T04:59:20.312Z,25.60
2022-12-24T05:02:22.383Z,26.30
2022-12-24T05:05:24.789Z,26.30
2022-12-24T05:08:26.785Z,26.90
2022-12-24T05:11:29.781Z,26.90
2022-12-24T05:14:31.821Z,27.50
2022-12-24T05:17:34.074Z,26.80
2022-12-24T05:20:36.046Z,25.70
2022-12-24T05:23:57.342Z,26.30
2022-12-24T05:26:59.536Z,26.70
2022-12-24T05:30:01.812Z,26.60
2022-12-24T05:33:04.255Z,25.90
2022-12-24T05:36:07.040Z,25.10
2022-12-24T05:39:15.395Z,24.10
2022-12-24T05:42:18.397Z,24.90
2022-12-24T05:45:20.428Z,24.90
2022-12-24T05:48:22.698Z,25.00
2022-12-24T05:51:24.759Z,25.40
2022-12-24T05:54:27.032Z,25.50
2022-12-24T05:57:29.012Z,26.00
2022-12-24T06:00:31.268Z,26.10
2022-12-24T06:03:34.190Z,25.20
2022-12-24T06:06:36.528Z,25.60
2022-12-24T06:09:38.510Z,25.30
2022-12-24T06:12:40.756Z,25.30
2022-12-24T06:15:42.800Z,25.50
2022-12-24T06:18:45.820Z,25.10
2022-12-24T06:21:47.968Z,24.60
2022-12-24T06:24:50.218Z,25.40
2022-12-24T06:27:52.199Z,25.80
2022-12-24T06:31:02.104Z,24.70
2022-12-24T06:34:04.577Z,25.70
2022-12-24T06:37:06.842Z,25.60
2022-12-24T06:40:09.533Z,25.50
2022-12-24T06:43:12.897Z,25.40
2022-12-24T06:46:15.777Z,25.60
2022-12-24T06:49:18.165Z,25.10
2022-12-24T06:52:20.164Z,26.10
2022-12-24T06:55:22.426Z,26.40
2022-12-24T06:58:24.459Z,26.40
2022-12-24T07:01:26.850Z,25.90
2022-12-24T07:04:29.958Z,26.10
2022-12-24T07:07:32.254Z,26.60
2022-12-24T07:10:34.459Z,26.50
2022-12-24T07:13:40.630Z,25.80
2022-12-24T07:16:43.263Z,25.80
2022-12-24T07:19:45.842Z,24.60
2022-12-24T07:22:48.306Z,25.30
2022-12-24T07:25:52.130Z,26.20
2022-12-24T07:28:54.082Z,26.40
2022-12-24T07:31:56.386Z,27.00
2022-12-24T07:34:58.635Z,26.80
2022-12-24T07:38:01.978Z,26.90
2022-12-24T07:41:08.138Z,26.80
2022-12-24T07:44:14.650Z,26.70
2022-12-24T07:47:16.754Z,27.10
2022-12-24T07:50:19.247Z,27.00
2022-12-24T07:53:21.363Z,26.60
2022-12-24T07:56:23.881Z,26.40
2022-12-24T07:59:26.040Z,25.70
2022-12-24T08:02:28.522Z,26.20
2022-12-24T08:05:36.939Z,26.60
2022-12-24T08:08:39.387Z,27.00
2022-12-24T08:11:46.196Z,26.80
2022-12-24T08:14:52.137Z,26.50
2022-12-24T08:17:54.120Z,26.70
2022-12-24T08:20:56.568Z,27.20
2022-12-24T08:23:58.550Z,26.90
2022-12-24T08:27:00.832Z,26.40
2022-12-24T08:30:04.096Z,27.10
2022-12-24T08:33:06.533Z,26.80
2022-12-24T08:36:09.146Z,26.60
2022-12-24T08:39:11.529Z,25.80
2022-12-24T08:42:13.524Z,25.90
2022-12-24T08:45:15.939Z,25.80
2022-12-24T08:48:18.272Z,26.10
2022-12-24T08:51:20.631Z,26.60
2022-12-24T08:54:23.687Z,26.30
2022-12-24T08:57:28.310Z,26.40
2022-12-24T09:00:30.385Z,27.00
2022-12-24T09:03:32.672Z,27.10
2022-12-24T09:06:34.724Z,26.60
2022-12-24T09:09:38.440Z,26.60
2022-12-24T09:12:40.558Z,26.20
2022-12-24T09:15:42.817Z,27.10
2022-12-24T09:18:44.939Z,26.60
2022-12-24T09:21:47.164Z,26.90
2022-12-24T09:24:49.192Z,26.80
2022-12-24T09:27:51.550Z,26.90
2022-12-24T09:31:05.066Z,26.40
2022-12-24T09:34:07.720Z,26.60
2022-12-24T09:37:09.742Z,26.70
2022-12-24T09:40:25.078Z,27.50
2022-12-24T09:43:31.969Z,27.40
2022-12-24T09:46:42.368Z,27.90
2022-12-24T09:49:49.661Z,28.30
2022-12-24T09:52:53.717Z,27.90
2022-12-24T09:56:01.820Z,28.20
2022-12-24T09:59:09.824Z,28.40
2022-12-24T10:02:17.851Z,27.80
2022-12-24T10:05:40.574Z,28.20
2022-12-24T10:08:57.412Z,28.20
2022-12-24T10:12:46.059Z,28.10
2022-12-24T10:16:04.136Z,27.80
2022-12-24T10:19:18.510Z,28.00
2022-12-24T10:22:27.079Z,28.10
2022-12-24T10:25:48.378Z,27.90
2022-12-24T10:29:00.279Z,27.60
2022-12-24T10:32:17.359Z,27.80
2022-12-24T10:35:24.153Z,27.60
2022-12-24T10:38:26.870Z,27.70
2022-12-24T10:41:30.386Z,27.80
2022-12-24T10:44:34.709Z,27.20
2022-12-24T10:47:39.647Z,27.30
2022-12-24T10:50:53.117Z,27.70
2022-12-24T10:53:59.181Z,27.50
2022-12-24T10:57:02.891Z,27.70
2022-12-24T11:00:07.099Z,27.10
2022-12-24T11:03:23.265Z,27.30
2022-12-24T11:06:25.659Z,27.50
2022-12-24T11:09:32.206Z,27.90
2022-12-24T11:12:38.824Z,27.80
2022-12-24T11:15:41.494Z,27.90
2022-12-24T11:18:58.364Z,28.20
2022-12-24T11:22:17.239Z,28.50
2022-12-24T11:25:34.367Z,28.70
2022-12-24T11:28:37.271Z,28.60
2022-12-24T11:31:39.476Z,29.10
2022-12-24T11:34:44.219Z,28.90
2022-12-24T11:37:47.091Z,28.80
2022-12-24T11:41:20.200Z,28.00
2022-12-24T11:44:27.461Z,28.30
2022-12-24T11:47:34.915Z,28.60
2022-12-24T11:50:37.606Z,28.60
2022-12-24T11:53:43.060Z,28.30
2022-12-24T11:56:48.893Z,27.70
2022-12-24T11:59:52.344Z,28.00
2022-12-24T12:02:58.462Z,27.70
2022-12-24T12:06:07.377Z,28.00
2022-12-24T12:09:25.812Z,27.80
2022-12-24T12:12:41.876Z,28.00
2022-12-24T12:16:02.491Z,28.40
2022-12-24T12:19:14.808Z,28.10
2022-12-24T12:22:34.183Z,28.40
2022-12-24T12:25:39.598Z,28.50
2022-12-24T12:29:22.806Z,28.60
2022-12-24T12:32:49.137Z,28.90
2022-12-24T12:35:51.748Z,28.90
2022-12-24T12:38:54.186Z,29.00
2022-12-24T12:42:05.025Z,28.80
2022-12-24T12:45:17.563Z,28.70
2022-12-24T12:48:35.069Z,29.00
2022-12-24T12:52:11.103Z,28.80
2022-12-24T12:55:42.874Z,28.80
2022-12-24T12:59:08.549Z,29.00
2022-12-24T13:02:26.104Z,29.30
2022-12-24T13:05:48.906Z,29.30
2022-12-24T13:08:53.892Z,29.40
2022-12-24T13:12:14.180Z,29.50
2022-12-24T13:15:22.003Z,29.10
2022-12-24T13:18:38.166Z,29.30
2022-12-24T13:21:45.068Z,29.30
2022-12-24T13:24:55.449Z,29.00
2022-12-24T13:27:57.488Z,28.60
2022-12-24T13:31:19.802Z,28.80
2022-12-24T13:34:36.943Z,28.80
2022-12-24T13:37:39.922Z,28.70
2022-12-24T13:40:41.950Z,28.80
2022-12-24T13:44:03.537Z,28.60
2022-12-24T13:47:32.745Z,27.90
2022-12-24T13:50:39.966Z,28.20
2022-12-24T13:53:47.573Z,27.80
2022-12-24T13:56:50.023Z,28.00
2022-12-24T14:00:17.989Z,28.30
2022-12-24T14:03:41.060Z,28.30
2022-12-24T14:06:43.146Z,28.20
2022-12-24T14:09:51.125Z,28.40
2022-12-24T14:12:53.620Z,28.40
2022-12-24T14:15:55.914Z,28.40
2022-12-24T14:19:17.994Z,28.30
2022-12-24T14:22:24.401Z,28.20
2022-12-24T14:25:26.541Z,28.00
2022-12-24T14:28:36.797Z,28.20
2022-12-24T14:31:49.866Z,28.60
2022-12-24T14:35:07.296Z,28.40
2022-12-24T14:38:21.425Z,28.50
2022-12-24T14:41:45.815Z,28.20
2022-12-24T14:44:59.640Z,28.30
2022-12-24T14:48:17.277Z,28.30
2022-12-24T14:51:24.835Z,28.60
2022-12-24T14:54:31.965Z,28.70
2022-12-24T14:57:33.982Z,28.50
2022-12-24T15:00:39.592Z,27.50
2022-12-24T15:03:41.814Z,27.80
2022-12-24T15:06:52.629Z,27.50
2022-12-24T15:09:54.752Z,27.80
2022-12-24T15:13:01.421Z,27.70
2022-12-24T15:16:14.696Z,28.10
2022-12-24T15:19:24.876Z,28.30
2022-12-24T15:22:31.396Z,27.80
2022-12-24T15:25:34.920Z,28.20
2022-12-24T15:28:39.262Z,28.50
2022-12-24T15:31:41.750Z,28.50
2022-12-24T15:34:46.675Z,28.20
2022-12-24T15:37:48.948Z,28.60
2022-12-24T15:40:51.352Z,28.40
2022-12-24T15:43:59.130Z,28.30
2022-12-24T15:47:02.760Z,28.30
2022-12-24T15:50:19.716Z,28.60
2022-12-24T15:53:35.937Z,28.90
2022-12-24T15:56:43.889Z,29.00
2022-12-24T15:59:52.388Z,29.10
2022-12-24T16:02:54.916Z,29.20
2022-12-24T16:06:08.438Z,29.20
2022-12-24T16:09:50.133Z,29.10
2022-12-24T16:12:52.422Z,29.00
2022-12-24T16:16:14.285Z,29.00
2022-12-24T16:19:21.885Z,29.00
2022-12-24T16:22:35.376Z,29.10
2022-12-24T16:25:37.456Z,29.20
2022-12-24T16:28:39.877Z,29.10
2022-12-24T16:31:49.834Z,29.00
2022-12-24T16:34:52.118Z,28.90
2022-12-24T16:37:55.453Z,28.70
2022-12-24T16:40:57.733Z,28.90
2022-12-24T16:43:59.828Z,28.90
2022-12-24T16:47:02.142Z,28.70
2022-12-24T16:50:06.765Z,28.60
2022-12-24T16:53:17.566Z,28.70
2022-12-24T16:56:20.489Z,27.90
2022-12-24T16:59:24.404Z,28.00
2022-12-24T17:02:26.564Z,28.30
2022-12-24T17:05:29.090Z,28.10
2022-12-24T17:08:31.088Z,28.40
2022-12-24T17:11:33.386Z,28.40
2022-12-24T17:14:35.852Z,28.30
2022-12-24T17:17:38.263Z,28.20
2022-12-24T17:20:40.272Z,28.40
2022-12-24T17:23:42.786Z,28.30
2022-12-24T17:26:44.891Z,28.40
2022-12-24T17:29:47.179Z,28.60
2022-12-24T17:32:49.193Z,28.50
2022-12-24T17:35:52.265Z,28.60
2022-12-24T17:38:54.263Z,28.60
2022-12-24T17:41:57.235Z,28.90
2022-12-24T17:44:59.324Z,28.80
2022-12-24T17:48:01.617Z,28.60
2022-12-24T17:51:08.313Z,28.70
2022-12-24T17:54:10.569Z,28.80
2022-12-24T17:57:12.745Z,28.80
2022-12-24T18:00:15.810Z,28.70
2022-12-24T18:03:18.128Z,28.60
2022-12-24T18:06:21.034Z,28.70
2022-12-24T18:09:23.037Z,28.70
2022-12-24T18:12:25.351Z,28.80
2022-12-24T18:15:27.416Z,28.90
2022-12-24T18:18:29.722Z,28.90
2022-12-24T18:21:33.088Z,29.00
2022-12-24T18:24:35.372Z,29.00
2022-12-24T18:27:37.554Z,29.00
2022-12-24T18:30:39.818Z,28.90
2022-12-24T18:33:42.950Z,28.90
2022-12-24T18:36:49.642Z,28.80
2022-12-24T18:39:55.026Z,28.80
2022-12-24T18:42:57.271Z,28.90
2022-12-24T18:45:59.300Z,28.90
2022-12-24T18:49:02.212Z,29.00
2022-12-24T18:52:09.317Z,28.90
2022-12-24T18:55:11.638Z,29.00
2022-12-24T18:58:13.726Z,29.00
2022-12-24T19:01:22.210Z,29.00
2022-12-24T19:04:24.597Z,29.00
2022-12-24T19:07:27.015Z,28.90
2022-12-24T19:10:29.037Z,28.80
2022-12-24T19:13:31.541Z,28.80
2022-12-24T19:16:36.443Z,28.50
2022-12-24T19:19:38.799Z,28.60
2022-12-24T19:22:40.894Z,28.80
2022-12-24T19:25:43.202Z,28.90
2022-12-24T19:28:45.835Z,29.00
2022-12-24T19:31:48.227Z,29.00
2022-12-24T19:34:50.247Z,29.10
2022-12-24T19:37:52.498Z,29.10
2022-12-24T19:40:54.428Z,29.10
2022-12-24T19:43:59.468Z,29.10
2022-12-24T19:47:01.435Z,29.30
2022-12-24T19:50:04.261Z,29.30
2022-12-24T19:53:06.239Z,29.20
2022-12-24T19:56:08.850Z,29.30
2022-12-24T19:59:10.867Z,29.30
2022-12-24T20:02:13.319Z,29.30
2022-12-24T20:05:16.951Z,29.20
2022-12-24T20:08:19.215Z,29.20
2022-12-24T20:11:22.321Z,29.20
2022-12-24T20:14:24.659Z,29.10
2022-12-24T20:17:26.641Z,29.20
2022-12-24T20:20:29.440Z,29.40
2022-12-24T20:23:31.833Z,29.40
2022-12-24T20:26:34.462Z,29.30
2022-12-24T20:29:36.404Z,29.10
2022-12-24T20:32:38.736Z,29.20
2022-12-24T20:35:40.779Z,29.20
2022-12-24T20:38:45.022Z,29.30
2022-12-24T20:41:48.507Z,29.30
2022-12-24T20:44:50.898Z,29.30
2022-12-24T20:47:52.908Z,29.30
2022-12-24T20:50:56.079Z,29.30
2022-12-24T20:54:00.828Z,29.30
2022-12-24T20:57:03.133Z,29.40
2022-12-24T21:00:05.772Z,29.40
2022-12-24T21:03:08.061Z,29.40
2022-12-24T21:06:10.662Z,29.40
2022-12-24T21:09:12.884Z,29.40
2022-12-24T21:12:33.790Z,29.50
2022-12-24T21:15:39.913Z,29.50
2022-12-24T21:18:41.920Z,29.50
2022-12-24T21:21:45.120Z,29.50
2022-12-24T21:24:47.168Z,29.60
2022-12-24T21:27:51.019Z,29.60
2022-12-24T21:30:54.625Z,29.70
2022-12-24T21:34:01.311Z,29.50
2022-12-24T21:37:03.463Z,29.50
2022-12-24T21:40:07.430Z,29.50
2022-12-24T21:43:09.576Z,29.50
2022-12-24T21:46:15.370Z,29.60
2022-12-24T21:49:36.576Z,29.50
2022-12-24T21:52:38.984Z,29.40
2022-12-24T21:55:40.960Z,29.50
2022-12-24T21:58:44.231Z,29.60
2022-12-24T22:01:46.403Z,29.40
2022-12-24T22:04:48.862Z,29.50
2022-12-24T22:08:09.664Z,29.30
2022-12-24T22:11:35.774Z,29.20
2022-12-24T22:14:38.083Z,29.30
2022-12-24T22:17:40.569Z,29.30
2022-12-24T22:20:43.929Z,29.00
2022-12-24T22:23:46.527Z,29.20
2022-12-24T22:26:48.533Z,29.30
2022-12-24T22:29:50.807Z,29.50
2022-12-24T22:32:52.844Z,29.40
2022-12-24T22:35:55.101Z,29.40
2022-12-24T22:38:57.245Z,29.30
2022-12-24T22:42:00.507Z,29.30
2022-12-24T22:45:02.645Z,29.40
2022-12-24T22:48:05.007Z,29.50
2022-12-24T22:51:15.021Z,29.70
2022-12-24T22:54:17.676Z,29.80
2022-12-24T22:57:19.671Z,29.90
2022-12-24T23:00:43.451Z,29.90
2022-12-24T23:03:45.541Z,30.00
2022-12-24T23:06:47.983Z,30.10
2022-12-24T23:09:50.147Z,30.00
2022-12-24T23:13:14.846Z,30.00
2022-12-24T23:16:17.655Z,29.90
2022-12-24T23:19:20.023Z,30.00
2022-12-24T23:22:22.062Z,30.10
2022-12-24T23:25:24.824Z,30.00
2022-12-24T23:28:26.780Z,30.00
2022-12-24T23:31:30.073Z,30.00
2022-12-24T23:34:32.913Z,30.00
2022-12-24T23:37:35.603Z,29.90
2022-12-24T23:40:37.714Z,30.00
2022-12-24T23:43:40.104Z,30.10
2022-12-24T23:46:42.203Z,30.10
2022-12-24T23:49:44.580Z,30.10
2022-12-24T23:52:46.560Z,30.10
2022-12-24T23:55:48.779Z,30.20
2022-12-24T23:58:51.180Z,30.20
